createdAt,value
2019-03-21T00:00:33.272Z,20.80
2019-03-21T00:01:12.823Z,22.87
2019-03-21T00:01:52.420Z,21.67
2019-03-21T00:02:23.706Z,20.57
2019-03-21T00:02:54.951Z,24.03
2019-03-21T00:03:26.215Z,22.17
2019-03-21T00:04:04.824Z,20.90
2019-03-21T00:04:36.189Z,19.50
2019-03-21T00:05:10.366Z,19.87
2019-03-21T00:05:41.588Z,17.70
2019-03-21T00:06:14.346Z,21.57
2019-03-21T00:06:45.558Z,22.17
2019-03-21T00:07:16.720Z,18.30
2019-03-21T00:07:47.928Z,19.67
2019-03-21T00:08:19.077Z,20.57
2019-03-21T00:08:50.290Z,22.67
2019-03-21T00:09:21.460Z,24.40
2019-03-21T00:10:15.948Z,22.47
2019-03-21T00:11:30.520Z,26.70
2019-03-21T00:12:06.830Z,20.20
2019-03-21T00:12:37.980Z,20.33
2019-03-21T00:13:09.216Z,20.10
2019-03-21T00:13:41.482Z,25.80
2019-03-21T00:14:18.341Z,26.43
2019-03-21T00:14:57.997Z,26.87
2019-03-21T00:15:37.658Z,25.13
2019-03-21T00:16:13.585Z,23.67
2019-03-21T00:16:45.053Z,19.63
2019-03-21T00:17:24.945Z,19.37
2019-03-21T00:18:00.279Z,23.77
2019-03-21T00:18:31.501Z,19.50
2019-03-21T00:19:02.732Z,21.60
2019-03-21T00:19:33.965Z,20.20
2019-03-21T00:20:14.925Z,21.77
2019-03-21T00:20:46.112Z,22.53
2019-03-21T00:21:17.337Z,24.10
2019-03-21T00:21:48.575Z,21.17
2019-03-21T00:22:19.807Z,21.10
2019-03-21T00:22:51.057Z,23.00
2019-03-21T00:23:22.249Z,25.37
2019-03-21T00:23:53.537Z,21.73
2019-03-21T00:24:24.787Z,22.57
2019-03-21T00:24:55.992Z,22.17
2019-03-21T00:25:27.170Z,24.73
2019-03-21T00:25:58.343Z,22.73
2019-03-21T00:26:31.385Z,23.03
2019-03-21T00:27:02.822Z,25.87
2019-03-21T00:27:34.027Z,24.30
2019-03-21T00:28:06.213Z,25.50
2019-03-21T00:28:37.382Z,26.40
2019-03-21T00:29:08.673Z,29.57
2019-03-21T00:29:39.860Z,26.23
2019-03-21T00:30:15.351Z,23.20
2019-03-21T00:30:46.534Z,24.17
2019-03-21T00:31:17.726Z,24.53
2019-03-21T00:31:48.960Z,25.00
2019-03-21T00:32:20.196Z,24.60
2019-03-21T00:32:53.128Z,23.43
2019-03-21T00:33:24.354Z,21.73
2019-03-21T00:33:55.658Z,23.73
2019-03-21T00:34:28.357Z,25.50
2019-03-21T00:34:59.614Z,23.43
2019-03-21T00:35:30.836Z,28.80
2019-03-21T00:36:02.012Z,22.33
2019-03-21T00:36:34.253Z,21.67
2019-03-21T00:37:05.514Z,23.37
2019-03-21T00:37:36.832Z,23.07
2019-03-21T00:38:08.058Z,22.40
2019-03-21T00:38:39.401Z,23.50
2019-03-21T00:39:10.732Z,27.70
2019-03-21T00:39:41.981Z,24.17
2019-03-21T00:40:26.741Z,29.30
2019-03-21T00:40:58.313Z,28.27
2019-03-21T00:41:29.474Z,25.00
2019-03-21T00:42:00.699Z,27.53
2019-03-21T00:42:31.846Z,23.47
2019-03-21T00:43:11.299Z,23.33
2019-03-21T00:43:42.447Z,28.50
2019-03-21T00:44:18.142Z,25.17
2019-03-21T00:44:46.811Z,25.13
2019-03-21T00:45:18.041Z,26.27
2019-03-21T00:45:49.223Z,21.33
2019-03-21T00:46:20.452Z,23.87
2019-03-21T00:46:51.601Z,24.97
2019-03-21T00:47:22.815Z,22.93
2019-03-21T00:47:53.979Z,23.60
2019-03-21T00:48:25.590Z,23.97
2019-03-21T00:48:56.764Z,25.50
2019-03-21T00:49:28.329Z,25.10
2019-03-21T00:49:59.496Z,20.60
2019-03-21T00:50:30.804Z,25.33
2019-03-21T00:51:02.038Z,23.40
2019-03-21T00:51:33.373Z,21.53
2019-03-21T00:52:04.616Z,24.50
2019-03-21T00:52:35.946Z,21.30
2019-03-21T00:53:07.185Z,21.80
2019-03-21T00:53:38.405Z,22.97
2019-03-21T00:54:09.609Z,24.50
2019-03-21T00:54:40.745Z,27.17
2019-03-21T00:55:12.348Z,23.83
2019-03-21T00:55:51.352Z,23.17
2019-03-21T00:56:23.922Z,28.33
2019-03-21T00:56:55.318Z,25.60
2019-03-21T00:57:26.509Z,27.27
2019-03-21T00:57:58.713Z,27.30
2019-03-21T00:58:30.061Z,23.70
2019-03-21T00:59:01.220Z,22.90
2019-03-21T00:59:32.421Z,20.97
2019-03-21T01:00:24.413Z,20.80
2019-03-21T01:01:00.117Z,22.37
2019-03-21T01:01:31.339Z,23.73
2019-03-21T01:02:02.586Z,22.97
2019-03-21T01:02:33.761Z,24.53
2019-03-21T01:03:05.621Z,22.63
2019-03-21T01:03:37.304Z,25.80
2019-03-21T01:04:08.503Z,23.10
2019-03-21T01:04:39.701Z,22.50
2019-03-21T01:05:11.019Z,20.43
2019-03-21T01:05:42.709Z,22.70
2019-03-21T01:06:13.965Z,26.00
2019-03-21T01:06:45.397Z,31.63
2019-03-21T01:07:16.663Z,23.57
2019-03-21T01:07:48.240Z,24.73
2019-03-21T01:08:19.446Z,22.73
2019-03-21T01:08:50.655Z,22.90
2019-03-21T01:09:21.930Z,23.23
2019-03-21T01:09:53.091Z,21.93
2019-03-21T01:10:29.570Z,26.43
2019-03-21T01:11:00.735Z,25.33
2019-03-21T01:11:31.952Z,25.27
2019-03-21T01:12:03.209Z,27.47
2019-03-21T01:12:34.411Z,25.23
2019-03-21T01:13:05.569Z,26.53
2019-03-21T01:13:39.075Z,25.83
2019-03-21T01:14:10.243Z,26.33
2019-03-21T01:14:41.439Z,25.17
2019-03-21T01:15:12.607Z,21.17
2019-03-21T01:15:43.799Z,24.63
2019-03-21T01:16:14.980Z,23.70
2019-03-21T01:16:47.205Z,22.60
2019-03-21T01:17:18.353Z,21.03
2019-03-21T01:17:49.577Z,23.70
2019-03-21T01:18:20.749Z,25.13
2019-03-21T01:18:52.948Z,23.10
2019-03-21T01:19:24.110Z,20.93
2019-03-21T01:19:55.560Z,22.50
2019-03-21T01:20:26.814Z,23.77
2019-03-21T01:20:58.027Z,24.90
2019-03-21T01:21:29.200Z,26.80
2019-03-21T01:22:00.388Z,26.10
2019-03-21T01:22:31.564Z,25.87
2019-03-21T01:23:02.752Z,26.67
2019-03-21T01:23:33.954Z,26.93
2019-03-21T01:24:06.170Z,25.53
2019-03-21T01:24:37.348Z,26.43
2019-03-21T01:25:26.720Z,24.17
2019-03-21T01:26:05.531Z,26.57
2019-03-21T01:26:36.759Z,26.57
2019-03-21T01:27:07.947Z,26.53
2019-03-21T01:27:39.118Z,26.67
2019-03-21T01:28:10.305Z,24.07
2019-03-21T01:28:41.471Z,24.70
2019-03-21T01:29:12.655Z,24.50
2019-03-21T01:29:43.849Z,26.53
2019-03-21T01:30:18.127Z,24.20
2019-03-21T01:30:49.311Z,21.80
2019-03-21T01:31:20.487Z,23.10
2019-03-21T01:31:54.599Z,22.53
2019-03-21T01:32:25.811Z,23.93
2019-03-21T01:32:57.054Z,25.27
2019-03-21T01:33:28.506Z,21.97
2019-03-21T01:33:59.733Z,25.20
2019-03-21T01:34:30.954Z,23.33
2019-03-21T01:35:03.896Z,26.50
2019-03-21T01:35:36.631Z,21.57
2019-03-21T01:36:07.880Z,26.13
2019-03-21T01:36:39.096Z,26.17
2019-03-21T01:37:10.245Z,25.40
2019-03-21T01:37:41.463Z,25.37
2019-03-21T01:38:12.607Z,24.83
2019-03-21T01:38:43.821Z,28.13
2019-03-21T01:39:14.968Z,26.07
2019-03-21T01:39:46.176Z,25.67
2019-03-21T01:40:28.955Z,26.73
2019-03-21T01:41:13.637Z,27.20
2019-03-21T01:41:44.833Z,26.60
2019-03-21T01:42:16.074Z,25.43
2019-03-21T01:42:47.323Z,24.20
2019-03-21T01:43:19.248Z,25.77
2019-03-21T01:43:50.491Z,24.30
2019-03-21T01:44:22.828Z,25.50
2019-03-21T01:44:54.050Z,25.37
2019-03-21T01:45:25.628Z,29.27
2019-03-21T01:45:57.164Z,25.17
2019-03-21T01:46:28.481Z,24.83
2019-03-21T01:46:59.701Z,28.63
2019-03-21T01:47:30.868Z,24.20
2019-03-21T01:48:02.077Z,26.10
2019-03-21T01:48:33.232Z,23.87
2019-03-21T01:49:04.451Z,26.33
2019-03-21T01:49:35.599Z,30.20
2019-03-21T01:50:12.007Z,24.07
2019-03-21T01:50:43.181Z,23.63
2019-03-21T01:51:14.399Z,25.77
2019-03-21T01:51:46.044Z,24.63
2019-03-21T01:52:17.355Z,27.17
2019-03-21T01:52:48.525Z,27.57
2019-03-21T01:53:19.743Z,26.63
2019-03-21T01:53:53.306Z,28.33
2019-03-21T01:54:24.513Z,29.20
2019-03-21T01:54:55.687Z,29.07
2019-03-21T01:55:26.895Z,28.63
2019-03-21T01:55:58.280Z,26.90
2019-03-21T01:56:30.161Z,28.73
2019-03-21T01:57:01.339Z,26.03
2019-03-21T01:57:32.488Z,25.90
2019-03-21T01:58:03.995Z,25.00
2019-03-21T01:58:35.156Z,25.13
2019-03-21T01:59:06.402Z,24.80
2019-03-21T01:59:37.560Z,24.27
2019-03-21T02:00:18.200Z,24.30
2019-03-21T02:00:54.888Z,23.47
2019-03-21T02:01:26.080Z,25.50
2019-03-21T02:01:57.260Z,25.63
2019-03-21T02:02:28.564Z,23.30
2019-03-21T02:03:00.745Z,27.73
2019-03-21T02:03:31.951Z,21.27
2019-03-21T02:04:03.112Z,24.10
2019-03-21T02:04:34.304Z,26.57
2019-03-21T02:05:09.164Z,23.50
2019-03-21T02:05:40.360Z,25.53
2019-03-21T02:06:11.524Z,27.23
2019-03-21T02:06:42.720Z,27.13
2019-03-21T02:07:13.904Z,25.77
2019-03-21T02:07:45.100Z,33.17
2019-03-21T02:08:16.303Z,27.17
2019-03-21T02:08:47.478Z,30.87
2019-03-21T02:09:18.660Z,28.33
2019-03-21T02:09:49.845Z,28.67
2019-03-21T02:10:21.025Z,29.37
2019-03-21T02:10:52.205Z,29.87
2019-03-21T02:11:23.400Z,25.40
2019-03-21T02:11:54.891Z,29.67
2019-03-21T02:12:26.077Z,27.27
2019-03-21T02:12:57.256Z,31.87
2019-03-21T02:13:28.439Z,28.43
2019-03-21T02:13:59.619Z,30.27
2019-03-21T02:14:30.805Z,29.97
2019-03-21T02:15:02.049Z,24.27
2019-03-21T02:15:33.301Z,26.70
2019-03-21T02:16:04.475Z,28.17
2019-03-21T02:16:35.662Z,26.30
2019-03-21T02:17:06.882Z,24.13
2019-03-21T02:17:38.051Z,27.17
2019-03-21T02:18:10.223Z,28.50
2019-03-21T02:18:41.504Z,27.13
2019-03-21T02:19:12.698Z,27.93
2019-03-21T02:19:43.898Z,25.90
2019-03-21T02:20:17.484Z,26.93
2019-03-21T02:20:48.651Z,28.17
2019-03-21T02:21:19.845Z,25.90
2019-03-21T02:21:51.079Z,30.57
2019-03-21T02:22:23.289Z,26.93
2019-03-21T02:22:54.504Z,27.73
2019-03-21T02:23:25.771Z,26.60
2019-03-21T02:23:56.934Z,28.23
2019-03-21T02:24:28.484Z,31.17
2019-03-21T02:24:59.660Z,27.47
2019-03-21T02:25:45.238Z,25.83
2019-03-21T02:26:16.431Z,25.00
2019-03-21T02:26:47.627Z,30.50
2019-03-21T02:27:18.832Z,26.23
2019-03-21T02:27:50.011Z,27.23
2019-03-21T02:28:21.162Z,28.33
2019-03-21T02:28:52.408Z,28.40
2019-03-21T02:29:23.567Z,28.30
2019-03-21T02:29:54.791Z,26.63
2019-03-21T02:30:44.536Z,25.40
2019-03-21T02:31:15.748Z,24.33
2019-03-21T02:31:47.012Z,24.40
2019-03-21T02:32:18.237Z,24.83
2019-03-21T02:32:53.662Z,27.30
2019-03-21T02:33:33.075Z,26.70
2019-03-21T02:34:04.706Z,28.57
2019-03-21T02:34:35.953Z,25.60
2019-03-21T02:35:07.198Z,27.90
2019-03-21T02:35:38.518Z,26.70
2019-03-21T02:36:12.242Z,27.60
2019-03-21T02:36:43.803Z,28.43
2019-03-21T02:37:15.043Z,29.47
2019-03-21T02:37:46.254Z,31.77
2019-03-21T02:38:17.394Z,30.97
2019-03-21T02:38:48.613Z,29.87
2019-03-21T02:39:19.775Z,28.20
2019-03-21T02:39:59.581Z,33.77
2019-03-21T02:40:24.969Z,30.80
2019-03-21T02:41:07.268Z,29.07
2019-03-21T02:41:38.471Z,34.93
2019-03-21T02:42:10.679Z,26.00
2019-03-21T02:42:41.905Z,28.70
2019-03-21T02:43:14.134Z,29.13
2019-03-21T02:43:45.384Z,30.80
2019-03-21T02:44:16.613Z,24.07
2019-03-21T02:44:47.891Z,28.77
2019-03-21T02:45:19.414Z,25.40
2019-03-21T02:45:50.817Z,27.60
2019-03-21T02:46:22.044Z,27.43
2019-03-21T02:46:53.275Z,26.30
2019-03-21T02:47:24.907Z,27.63
2019-03-21T02:47:56.121Z,25.40
2019-03-21T02:48:27.270Z,27.80
2019-03-21T02:48:58.482Z,29.03
2019-03-21T02:49:29.649Z,26.10
2019-03-21T02:50:00.920Z,27.30
2019-03-21T02:50:39.743Z,26.57
2019-03-21T02:51:10.958Z,28.17
2019-03-21T02:51:42.119Z,30.23
2019-03-21T02:52:13.330Z,31.37
2019-03-21T02:52:44.612Z,33.70
2019-03-21T02:53:15.835Z,30.97
2019-03-21T02:53:46.980Z,34.97
2019-03-21T02:54:18.165Z,33.33
2019-03-21T02:54:49.343Z,31.47
2019-03-21T02:55:21.314Z,29.53
2019-03-21T02:55:52.607Z,28.83
2019-03-21T02:56:25.097Z,25.83
2019-03-21T02:56:56.306Z,25.80
2019-03-21T02:57:27.876Z,29.57
2019-03-21T02:57:59.064Z,26.97
2019-03-21T02:58:31.070Z,28.60
2019-03-21T02:59:02.274Z,28.50
2019-03-21T02:59:33.468Z,28.60
2019-03-21T03:00:15.846Z,26.40
2019-03-21T03:00:47.044Z,26.27
2019-03-21T03:01:18.220Z,25.63
2019-03-21T03:01:49.419Z,26.40
2019-03-21T03:02:20.588Z,26.07
2019-03-21T03:02:54.810Z,28.00
2019-03-21T03:03:26.009Z,29.27
2019-03-21T03:03:57.193Z,24.97
2019-03-21T03:04:28.383Z,26.83
2019-03-21T03:04:59.578Z,25.47
2019-03-21T03:05:32.449Z,29.70
2019-03-21T03:06:03.637Z,28.00
2019-03-21T03:06:34.831Z,25.53
2019-03-21T03:07:06.015Z,33.33
2019-03-21T03:07:37.245Z,32.47
2019-03-21T03:08:08.753Z,29.47
2019-03-21T03:08:39.925Z,30.13
2019-03-21T03:09:11.146Z,27.73
2019-03-21T03:09:42.308Z,34.10
2019-03-21T03:10:21.568Z,27.40
2019-03-21T03:10:59.413Z,27.37
2019-03-21T03:11:30.694Z,28.23
2019-03-21T03:12:01.905Z,27.80
2019-03-21T03:12:33.110Z,27.97
2019-03-21T03:13:04.315Z,25.90
2019-03-21T03:13:36.284Z,28.53
2019-03-21T03:14:07.457Z,29.83
2019-03-21T03:14:38.711Z,29.67
2019-03-21T03:15:22.587Z,27.23
2019-03-21T03:15:48.376Z,24.57
2019-03-21T03:16:21.850Z,28.30
2019-03-21T03:16:53.148Z,26.70
2019-03-21T03:17:24.304Z,27.87
2019-03-21T03:17:55.514Z,28.23
2019-03-21T03:18:26.720Z,27.37
2019-03-21T03:18:57.974Z,29.47
2019-03-21T03:19:29.143Z,29.10
2019-03-21T03:20:00.638Z,27.03
2019-03-21T03:20:31.909Z,30.17
2019-03-21T03:21:03.119Z,29.20
2019-03-21T03:21:34.307Z,30.60
2019-03-21T03:22:05.492Z,28.07
2019-03-21T03:22:36.669Z,27.50
2019-03-21T03:23:07.851Z,28.07
2019-03-21T03:23:39.033Z,30.37
2019-03-21T03:24:10.282Z,30.17
2019-03-21T03:24:41.474Z,29.30
2019-03-21T03:25:19.356Z,27.50
2019-03-21T03:25:51.412Z,29.33
2019-03-21T03:26:22.804Z,27.90
2019-03-21T03:26:53.975Z,30.53
2019-03-21T03:27:25.327Z,27.53
2019-03-21T03:28:04.921Z,27.23
2019-03-21T03:28:43.245Z,24.30
2019-03-21T03:29:14.385Z,27.27
2019-03-21T03:29:45.595Z,30.57
2019-03-21T03:30:20.749Z,26.43
2019-03-21T03:30:57.031Z,24.33
2019-03-21T03:31:28.329Z,27.37
2019-03-21T03:31:59.545Z,27.57
2019-03-21T03:32:32.013Z,27.10
2019-03-21T03:33:03.257Z,26.57
2019-03-21T03:33:34.471Z,29.33
2019-03-21T03:34:05.843Z,27.60
2019-03-21T03:34:38.164Z,31.43
2019-03-21T03:35:11.705Z,33.40
2019-03-21T03:35:43.124Z,29.33
2019-03-21T03:36:15.161Z,29.93
2019-03-21T03:36:46.413Z,29.77
2019-03-21T03:37:17.692Z,29.23
2019-03-21T03:37:48.976Z,29.90
2019-03-21T03:38:20.221Z,29.53
2019-03-21T03:38:51.445Z,25.87
2019-03-21T03:39:22.609Z,25.60
2019-03-21T03:39:53.831Z,25.23
2019-03-21T03:40:52.864Z,25.63
2019-03-21T03:41:25.391Z,25.40
2019-03-21T03:41:56.553Z,27.50
2019-03-21T03:42:27.890Z,27.60
2019-03-21T03:42:59.055Z,25.70
2019-03-21T03:43:30.404Z,26.67
2019-03-21T03:44:01.651Z,27.50
2019-03-21T03:44:33.896Z,26.40
2019-03-21T03:45:36.547Z,23.40
2019-03-21T03:45:58.479Z,25.23
2019-03-21T03:46:29.708Z,25.27
2019-03-21T03:47:00.937Z,27.47
2019-03-21T03:47:32.169Z,29.10
2019-03-21T03:48:04.051Z,29.13
2019-03-21T03:48:35.352Z,23.10
2019-03-21T03:49:06.581Z,35.20
2019-03-21T03:49:37.809Z,29.17
2019-03-21T03:50:10.021Z,27.90
2019-03-21T03:50:41.202Z,26.53
2019-03-21T03:51:12.429Z,30.40
2019-03-21T03:51:43.557Z,26.57
2019-03-21T03:52:14.778Z,32.90
2019-03-21T03:52:45.921Z,26.97
2019-03-21T03:53:17.422Z,27.93
2019-03-21T03:53:48.629Z,25.60
2019-03-21T03:54:19.938Z,26.97
2019-03-21T03:54:51.110Z,28.87
2019-03-21T03:55:22.389Z,28.13
2019-03-21T03:55:53.571Z,26.77
2019-03-21T03:56:24.847Z,26.73
2019-03-21T03:56:56.012Z,31.57
2019-03-21T03:57:28.246Z,29.50
2019-03-21T03:58:24.036Z,30.20
2019-03-21T03:59:00.945Z,30.47
2019-03-21T03:59:32.123Z,30.83
2019-03-21T04:00:08.991Z,28.07
2019-03-21T04:00:40.169Z,28.57
2019-03-21T04:01:11.354Z,29.93
2019-03-21T04:01:42.539Z,30.20
2019-03-21T04:02:13.727Z,24.00
2019-03-21T04:02:46.934Z,26.37
2019-03-21T04:03:18.220Z,23.40
2019-03-21T04:03:49.387Z,27.57
2019-03-21T04:04:20.583Z,28.87
2019-03-21T04:04:51.750Z,24.23
2019-03-21T04:05:23.252Z,25.37
2019-03-21T04:05:54.899Z,24.90
2019-03-21T04:06:26.085Z,23.93
2019-03-21T04:06:57.274Z,28.70
2019-03-21T04:07:28.463Z,24.83
2019-03-21T04:07:59.680Z,28.37
2019-03-21T04:08:30.868Z,26.70
2019-03-21T04:09:04.262Z,23.13
2019-03-21T04:09:35.450Z,24.93
2019-03-21T04:10:31.885Z,25.73
2019-03-21T04:11:03.186Z,24.93
2019-03-21T04:11:34.374Z,24.07
2019-03-21T04:12:05.578Z,23.90
2019-03-21T04:12:36.755Z,24.97
2019-03-21T04:13:07.933Z,22.83
2019-03-21T04:13:39.129Z,26.30
2019-03-21T04:14:10.401Z,27.80
2019-03-21T04:14:41.629Z,25.20
2019-03-21T04:15:13.975Z,25.73
2019-03-21T04:15:52.416Z,22.07
2019-03-21T04:16:18.257Z,22.60
2019-03-21T04:16:49.461Z,24.47
2019-03-21T04:17:20.625Z,24.07
2019-03-21T04:17:51.867Z,24.93
2019-03-21T04:18:24.230Z,21.90
2019-03-21T04:18:55.481Z,24.67
2019-03-21T04:19:26.694Z,22.57
2019-03-21T04:19:57.879Z,21.83
2019-03-21T04:20:38.914Z,19.03
2019-03-21T04:21:12.786Z,21.50
2019-03-21T04:21:43.992Z,21.23
2019-03-21T04:22:15.189Z,20.43
2019-03-21T04:22:46.372Z,20.63
2019-03-21T04:23:23.141Z,17.13
2019-03-21T04:23:54.617Z,19.00
2019-03-21T04:24:26.159Z,22.13
2019-03-21T04:24:57.338Z,18.30
2019-03-21T04:25:36.650Z,17.57
2019-03-21T04:26:28.167Z,21.73
2019-03-21T04:26:59.356Z,21.90
2019-03-21T04:27:30.642Z,20.17
2019-03-21T04:28:01.825Z,19.67
2019-03-21T04:28:33.607Z,20.37
2019-03-21T04:29:04.772Z,19.00
2019-03-21T04:29:35.968Z,18.60
2019-03-21T04:30:16.109Z,20.00
2019-03-21T04:30:47.305Z,19.13
2019-03-21T04:31:18.498Z,18.07
2019-03-21T04:31:49.675Z,22.27
2019-03-21T04:32:21.005Z,18.27
2019-03-21T04:32:52.232Z,20.97
2019-03-21T04:33:23.535Z,21.07
2019-03-21T04:33:59.677Z,18.23
2019-03-21T04:34:30.870Z,17.47
2019-03-21T04:35:02.147Z,19.07
2019-03-21T04:35:33.479Z,20.97
2019-03-21T04:36:04.692Z,17.93
2019-03-21T04:36:35.928Z,15.17
2019-03-21T04:37:07.162Z,25.13
2019-03-21T04:37:38.398Z,19.33
2019-03-21T04:38:09.757Z,16.73
2019-03-21T04:38:41.361Z,18.23
2019-03-21T04:39:12.595Z,19.30
2019-03-21T04:39:43.825Z,20.80
2019-03-21T04:40:17.887Z,21.60
2019-03-21T04:40:49.092Z,18.30
2019-03-21T04:41:20.247Z,21.00
2019-03-21T04:41:51.455Z,18.40
2019-03-21T04:42:22.613Z,21.23
2019-03-21T04:42:53.826Z,23.23
2019-03-21T04:43:24.979Z,20.13
2019-03-21T04:43:56.175Z,18.47
2019-03-21T04:44:27.344Z,18.93
2019-03-21T04:44:58.610Z,16.70
2019-03-21T04:45:29.828Z,20.37
2019-03-21T04:46:03.683Z,20.73
2019-03-21T04:46:34.082Z,21.27
2019-03-21T04:47:05.284Z,20.07
2019-03-21T04:47:36.444Z,20.27
2019-03-21T04:48:07.675Z,20.00
2019-03-21T04:48:38.828Z,18.33
2019-03-21T04:49:10.036Z,18.50
2019-03-21T04:49:41.236Z,21.30
2019-03-21T04:50:19.878Z,20.43
2019-03-21T04:50:51.044Z,19.13
2019-03-21T04:51:22.250Z,17.60
2019-03-21T04:51:53.406Z,19.30
2019-03-21T04:52:24.731Z,18.43
2019-03-21T04:52:55.924Z,20.33
2019-03-21T04:53:27.126Z,21.27
2019-03-21T04:53:58.279Z,19.80
2019-03-21T04:54:29.498Z,21.43
2019-03-21T04:55:00.686Z,18.97
2019-03-21T04:55:31.875Z,19.37
2019-03-21T04:56:03.092Z,18.83
2019-03-21T04:56:34.321Z,18.13
2019-03-21T04:57:06.535Z,18.10
2019-03-21T04:57:37.693Z,17.40
2019-03-21T04:58:08.900Z,19.50
2019-03-21T04:58:40.096Z,18.43
2019-03-21T04:59:11.311Z,17.07
2019-03-21T04:59:42.471Z,17.83
2019-03-21T05:00:24.862Z,17.30
2019-03-21T05:00:57.041Z,16.47
2019-03-21T05:01:28.371Z,16.07
2019-03-21T05:01:59.542Z,17.37
2019-03-21T05:02:30.768Z,18.63
2019-03-21T05:03:06.943Z,17.43
2019-03-21T05:03:38.185Z,20.00
2019-03-21T05:04:09.332Z,16.70
2019-03-21T05:04:40.529Z,14.57
2019-03-21T05:05:12.899Z,16.63
2019-03-21T05:05:44.079Z,16.80
2019-03-21T05:06:15.260Z,17.07
2019-03-21T05:06:46.436Z,17.47
2019-03-21T05:07:17.610Z,20.20
2019-03-21T05:07:48.802Z,21.57
2019-03-21T05:08:19.984Z,16.60
2019-03-21T05:08:51.956Z,16.97
2019-03-21T05:09:23.174Z,17.87
2019-03-21T05:09:54.382Z,16.03
2019-03-21T05:10:25.566Z,17.23
2019-03-21T05:10:56.736Z,19.13
2019-03-21T05:11:28.153Z,19.30
2019-03-21T05:11:59.334Z,19.63
2019-03-21T05:12:30.539Z,16.87
2019-03-21T05:13:01.734Z,24.13
2019-03-21T05:13:32.922Z,27.67
2019-03-21T05:14:04.128Z,28.90
2019-03-21T05:14:35.330Z,25.93
2019-03-21T05:15:11.249Z,32.57
2019-03-21T05:15:45.823Z,29.53
2019-03-21T05:16:17.034Z,27.63
2019-03-21T05:16:48.199Z,28.67
2019-03-21T05:17:19.417Z,30.40
2019-03-21T05:17:55.176Z,31.67
2019-03-21T05:18:34.734Z,27.83
2019-03-21T05:19:05.895Z,30.87
2019-03-21T05:19:37.104Z,27.27
2019-03-21T05:20:15.493Z,25.53
2019-03-21T05:20:47.682Z,23.90
2019-03-21T05:21:21.839Z,27.37
2019-03-21T05:21:53.043Z,22.80
2019-03-21T05:22:24.215Z,27.17
2019-03-21T05:22:56.852Z,25.67
2019-03-21T05:23:28.083Z,22.23
2019-03-21T05:23:59.287Z,26.40
2019-03-21T05:24:30.447Z,27.07
2019-03-21T05:25:01.658Z,23.47
2019-03-21T05:25:32.844Z,24.23
2019-03-21T05:26:04.388Z,22.97
2019-03-21T05:26:35.618Z,26.67
2019-03-21T05:27:06.854Z,23.77
2019-03-21T05:27:38.096Z,28.87
2019-03-21T05:28:09.334Z,25.87
2019-03-21T05:28:40.565Z,26.03
2019-03-21T05:29:11.786Z,26.73
2019-03-21T05:29:43.018Z,31.93
2019-03-21T05:30:28.653Z,27.37
2019-03-21T05:31:10.732Z,28.87
2019-03-21T05:31:41.897Z,25.00
2019-03-21T05:32:13.130Z,26.67
2019-03-21T05:32:44.296Z,27.93
2019-03-21T05:33:15.518Z,27.47
2019-03-21T05:33:46.680Z,23.47
2019-03-21T05:34:17.904Z,22.93
2019-03-21T05:34:49.058Z,31.17
2019-03-21T05:35:20.285Z,35.20
2019-03-21T05:35:51.963Z,35.60
2019-03-21T05:36:23.239Z,32.90
2019-03-21T05:36:54.943Z,34.17
2019-03-21T05:37:26.618Z,33.00
2019-03-21T05:37:58.101Z,25.10
2019-03-21T05:38:31.628Z,28.20
2019-03-21T05:39:07.355Z,26.27
2019-03-21T05:39:38.586Z,26.20
2019-03-21T05:40:15.746Z,23.90
2019-03-21T05:40:47.952Z,25.00
2019-03-21T05:41:19.128Z,27.17
2019-03-21T05:41:50.365Z,24.83
2019-03-21T05:42:21.598Z,30.03
2019-03-21T05:43:07.641Z,25.93
2019-03-21T05:43:47.225Z,24.77
2019-03-21T05:44:35.752Z,51.53
2019-03-21T05:45:12.670Z,47.67
2019-03-21T05:45:43.945Z,41.17
2019-03-21T05:46:26.105Z,40.07
2019-03-21T05:46:50.919Z,33.97
2019-03-21T05:47:22.221Z,36.57
2019-03-21T05:47:53.411Z,37.80
2019-03-21T05:48:24.825Z,36.60
2019-03-21T05:48:56.999Z,38.67
2019-03-21T05:49:28.236Z,32.80
2019-03-21T05:49:59.415Z,35.37
2019-03-21T05:50:30.620Z,28.77
2019-03-21T05:51:01.803Z,33.43
2019-03-21T05:51:32.965Z,36.00
2019-03-21T05:52:05.079Z,36.57
2019-03-21T05:52:36.341Z,39.00
2019-03-21T05:53:07.571Z,38.60
2019-03-21T05:53:38.724Z,47.37
2019-03-21T05:54:09.936Z,36.90
2019-03-21T05:54:41.088Z,41.37
2019-03-21T05:55:12.280Z,41.77
2019-03-21T05:55:43.481Z,37.30
2019-03-21T05:56:14.673Z,37.40
2019-03-21T05:56:45.806Z,37.60
2019-03-21T05:57:17.010Z,47.63
2019-03-21T05:57:48.197Z,61.93
2019-03-21T05:58:19.422Z,57.73
2019-03-21T05:58:50.620Z,78.77
2019-03-21T05:59:21.830Z,57.13
2019-03-21T05:59:52.997Z,57.27
2019-03-21T06:00:31.394Z,63.50
2019-03-21T06:01:12.167Z,54.40
2019-03-21T06:01:43.333Z,49.13
2019-03-21T06:02:14.517Z,52.77
2019-03-21T06:02:45.679Z,48.43
2019-03-21T06:03:30.773Z,43.67
2019-03-21T06:04:01.959Z,38.50
2019-03-21T06:04:35.043Z,33.33
2019-03-21T06:05:06.195Z,31.77
2019-03-21T06:05:41.166Z,31.30
2019-03-21T06:06:18.129Z,33.97
2019-03-21T06:07:13.033Z,34.87
2019-03-21T06:07:52.495Z,28.77
2019-03-21T06:08:30.840Z,32.40
2019-03-21T06:09:02.125Z,27.17
2019-03-21T06:09:33.714Z,25.70
2019-03-21T06:10:13.181Z,25.10
2019-03-21T06:10:45.772Z,24.90
2019-03-21T06:11:16.969Z,23.37
2019-03-21T06:11:59.165Z,27.03
2019-03-21T06:12:36.041Z,23.27
2019-03-21T06:13:07.220Z,22.67
2019-03-21T06:13:38.442Z,24.70
2019-03-21T06:14:09.641Z,25.67
2019-03-21T06:14:55.166Z,25.40
2019-03-21T06:15:33.922Z,39.70
2019-03-21T06:16:04.791Z,35.53
2019-03-21T06:16:37.883Z,38.60
2019-03-21T06:17:09.143Z,31.53
2019-03-21T06:17:40.306Z,21.57
2019-03-21T06:18:26.204Z,24.87
2019-03-21T06:19:21.142Z,30.23
2019-03-21T06:20:04.150Z,28.90
2019-03-21T06:21:02.119Z,29.43
2019-03-21T06:21:53.656Z,25.97
2019-03-21T06:22:33.663Z,28.17
2019-03-21T06:23:31.865Z,24.83
2019-03-21T06:24:46.190Z,23.93
2019-03-21T06:25:25.814Z,19.37
2019-03-21T06:26:30.057Z,20.60
2019-03-21T06:27:28.031Z,18.00
2019-03-21T06:27:59.237Z,15.53
2019-03-21T06:28:31.148Z,19.90
2019-03-21T06:29:02.344Z,18.30
2019-03-21T06:29:33.533Z,17.53
2019-03-21T06:30:06.828Z,17.80
2019-03-21T06:30:38.027Z,19.33
2019-03-21T06:31:09.191Z,20.23
2019-03-21T06:31:40.386Z,15.87
2019-03-21T06:32:13.040Z,20.60
2019-03-21T06:32:44.474Z,16.87
2019-03-21T06:33:15.699Z,15.77
2019-03-21T06:33:46.914Z,18.80
2019-03-21T06:34:18.147Z,13.77
2019-03-21T06:34:49.409Z,16.67
2019-03-21T06:35:20.654Z,15.10
2019-03-21T06:35:51.898Z,15.13
2019-03-21T06:36:23.184Z,15.80
2019-03-21T06:36:54.838Z,14.90
2019-03-21T06:37:28.447Z,15.30
2019-03-21T06:37:59.131Z,15.90
2019-03-21T06:38:30.383Z,15.93
2019-03-21T06:39:01.621Z,20.40
2019-03-21T06:39:34.259Z,16.57
2019-03-21T06:40:05.520Z,15.37
2019-03-21T06:40:36.760Z,18.00
2019-03-21T06:41:07.993Z,18.53
2019-03-21T06:41:39.240Z,17.57
2019-03-21T06:42:10.462Z,22.20
2019-03-21T06:42:42.670Z,21.70
2019-03-21T06:43:13.854Z,16.07
2019-03-21T06:43:45.087Z,15.27
2019-03-21T06:44:16.309Z,15.57
2019-03-21T06:44:47.560Z,13.80
2019-03-21T06:45:18.800Z,16.63
2019-03-21T06:45:50.058Z,18.10
2019-03-21T06:46:21.331Z,20.33
2019-03-21T06:46:52.630Z,16.93
2019-03-21T06:47:23.889Z,20.03
2019-03-21T06:47:56.564Z,19.20
2019-03-21T06:48:27.741Z,15.83
2019-03-21T06:48:58.973Z,13.93
2019-03-21T06:49:30.216Z,14.83
2019-03-21T06:50:01.465Z,14.50
2019-03-21T06:50:32.707Z,13.10
2019-03-21T06:51:03.953Z,15.47
2019-03-21T06:51:35.245Z,19.27
2019-03-21T06:52:06.525Z,15.57
2019-03-21T06:52:38.780Z,15.20
2019-03-21T06:53:09.971Z,15.50
2019-03-21T06:53:41.130Z,22.10
2019-03-21T06:54:12.329Z,18.90
2019-03-21T06:54:43.487Z,17.77
2019-03-21T06:55:14.706Z,19.30
2019-03-21T06:55:45.871Z,17.80
2019-03-21T06:56:17.073Z,14.70
2019-03-21T06:56:49.250Z,22.07
2019-03-21T06:57:20.435Z,15.07
2019-03-21T06:57:51.592Z,15.50
2019-03-21T06:58:22.779Z,14.13
2019-03-21T06:58:53.954Z,16.20
2019-03-21T06:59:25.221Z,16.33
2019-03-21T06:59:56.522Z,15.93
2019-03-21T07:00:27.694Z,16.90
2019-03-21T07:00:58.880Z,18.67
2019-03-21T07:01:30.054Z,18.37
2019-03-21T07:02:01.244Z,24.07
2019-03-21T07:02:32.408Z,18.03